sensor_id;sensor_type;location;lat;lon;timestamp;P1;durP1;ratioP1;P2;durP2;ratioP2
37407;SDS011;24866;50.248;8.252;2023-02-28T00:00:01;3.90;;;1.83;;
37407;SDS011;24866;50.248;8.252;2023-02-28T00:02:38;4.93;;;1.90;;
37407;SDS011;24866;50.248;8.252;2023-02-28T00:05:10;5.90;;;2.30;;
37407;SDS011;24866;50.248;8.252;2023-02-28T00:07:41;4.60;;;2.78;;
37407;SDS011;24866;50.248;8.252;2023-02-28T00:10:12;5.30;;;2.83;;
37407;SDS011;24866;50.248;8.252;2023-02-28T00:12:44;3.30;;;1.83;;
37407;SDS011;24866;50.248;8.252;2023-02-28T00:15:20;3.45;;;2.03;;
37407;SDS011;24866;50.248;8.252;2023-02-28T00:17:51;4.03;;;2.40;;
37407;SDS011;24866;50.248;8.252;2023-02-28T00:20:21;4.30;;;2.17;;
37407;SDS011;24866;50.248;8.252;2023-02-28T00:22:52;5.53;;;2.42;;
37407;SDS011;24866;50.248;8.252;2023-02-28T00:25:23;3.85;;;2.30;;
37407;SDS011;24866;50.248;8.252;2023-02-28T00:27:54;6.93;;;2.92;;
37407;SDS011;24866;50.248;8.252;2023-02-28T00:30:25;4.72;;;3.08;;
37407;SDS011;24866;50.248;8.252;2023-02-28T00:32:55;3.95;;;2.15;;
37407;SDS011;24866;50.248;8.252;2023-02-28T00:35:27;6.53;;;2.55;;
37407;SDS011;24866;50.248;8.252;2023-02-28T00:37:57;5.57;;;3.03;;
37407;SDS011;24866;50.248;8.252;2023-02-28T00:40:27;4.63;;;2.55;;
37407;SDS011;24866;50.248;8.252;2023-02-28T00:42:58;4.97;;;3.00;;
37407;SDS011;24866;50.248;8.252;2023-02-28T00:45:29;4.93;;;2.70;;
37407;SDS011;24866;50.248;8.252;2023-02-28T00:48:00;5.22;;;2.95;;
37407;SDS011;24866;50.248;8.252;2023-02-28T00:50:30;5.00;;;2.58;;
37407;SDS011;24866;50.248;8.252;2023-02-28T00:53:01;3.97;;;2.35;;
37407;SDS011;24866;50.248;8.252;2023-02-28T00:55:31;7.57;;;2.63;;
37407;SDS011;24866;50.248;8.252;2023-02-28T00:58:01;4.15;;;2.70;;
37407;SDS011;24866;50.248;8.252;2023-02-28T01:00:34;4.82;;;2.92;;
37407;SDS011;24866;50.248;8.252;2023-02-28T01:03:08;5.50;;;2.85;;
37407;SDS011;24866;50.248;8.252;2023-02-28T01:05:38;4.38;;;2.75;;
37407;SDS011;24866;50.248;8.252;2023-02-28T01:08:15;7.15;;;3.10;;
37407;SDS011;24866;50.248;8.252;2023-02-28T01:10:45;6.30;;;3.00;;
37407;SDS011;24866;50.248;8.252;2023-02-28T01:13:15;7.28;;;3.65;;
37407;SDS011;24866;50.248;8.252;2023-02-28T01:15:49;4.95;;;3.10;;
37407;SDS011;24866;50.248;8.252;2023-02-28T01:18:24;5.30;;;2.92;;
37407;SDS011;24866;50.248;8.252;2023-02-28T01:20:54;5.50;;;3.47;;
37407;SDS011;24866;50.248;8.252;2023-02-28T01:23:24;6.53;;;3.22;;
37407;SDS011;24866;50.248;8.252;2023-02-28T01:25:54;6.32;;;2.85;;
37407;SDS011;24866;50.248;8.252;2023-02-28T01:28:25;5.70;;;3.90;;
37407;SDS011;24866;50.248;8.252;2023-02-28T01:30:59;5.32;;;3.20;;
37407;SDS011;24866;50.248;8.252;2023-02-28T01:33:30;6.32;;;3.97;;
37407;SDS011;24866;50.248;8.252;2023-02-28T01:36:02;6.50;;;3.53;;
37407;SDS011;24866;50.248;8.252;2023-02-28T01:38:36;6.63;;;3.55;;
37407;SDS011;24866;50.248;8.252;2023-02-28T01:41:06;5.25;;;3.42;;
37407;SDS011;24866;50.248;8.252;2023-02-28T01:43:52;5.32;;;3.15;;
37407;SDS011;24866;50.248;8.252;2023-02-28T01:46:28;6.32;;;3.72;;
37407;SDS011;24866;50.248;8.252;2023-02-28T01:49:01;6.47;;;3.47;;
37407;SDS011;24866;50.248;8.252;2023-02-28T01:51:35;5.18;;;3.40;;
37407;SDS011;24866;50.248;8.252;2023-02-28T01:54:14;5.30;;;3.60;;
37407;SDS011;24866;50.248;8.252;2023-02-28T01:56:49;5.80;;;3.53;;
37407;SDS011;24866;50.248;8.252;2023-02-28T01:59:24;4.75;;;3.25;;
37407;SDS011;24866;50.248;8.252;2023-02-28T02:01:59;6.80;;;3.40;;
37407;SDS011;24866;50.248;8.252;2023-02-28T02:04:32;5.32;;;3.03;;
37407;SDS011;24866;50.248;8.252;2023-02-28T02:07:06;4.85;;;2.67;;
37407;SDS011;24866;50.248;8.252;2023-02-28T02:09:37;6.88;;;3.42;;
37407;SDS011;24866;50.248;8.252;2023-02-28T02:12:10;5.63;;;3.08;;
37407;SDS011;24866;50.248;8.252;2023-02-28T02:14:53;5.93;;;3.20;;
37407;SDS011;24866;50.248;8.252;2023-02-28T02:17:32;7.13;;;3.28;;
37407;SDS011;24866;50.248;8.252;2023-02-28T02:23:14;6.15;;;3.30;;
37407;SDS011;24866;50.248;8.252;2023-02-28T02:26:21;4.47;;;3.15;;
37407;SDS011;24866;50.248;8.252;2023-02-28T02:35:26;4.60;;;3.25;;
37407;SDS011;24866;50.248;8.252;2023-02-28T02:38:02;6.00;;;3.55;;
37407;SDS011;24866;50.248;8.252;2023-02-28T02:40:38;6.60;;;3.75;;
37407;SDS011;24866;50.248;8.252;2023-02-28T02:43:13;8.43;;;4.03;;
37407;SDS011;24866;50.248;8.252;2023-02-28T02:45:49;5.45;;;3.10;;
37407;SDS011;24866;50.248;8.252;2023-02-28T02:48:24;6.70;;;3.50;;
37407;SDS011;24866;50.248;8.252;2023-02-28T02:50:59;5.43;;;3.38;;
37407;SDS011;24866;50.248;8.252;2023-02-28T02:53:35;6.72;;;3.65;;
37407;SDS011;24866;50.248;8.252;2023-02-28T02:56:10;6.13;;;3.55;;
37407;SDS011;24866;50.248;8.252;2023-02-28T02:58:41;6.93;;;3.20;;
37407;SDS011;24866;50.248;8.252;2023-02-28T03:01:14;6.20;;;3.78;;
37407;SDS011;24866;50.248;8.252;2023-02-28T03:03:55;7.10;;;3.35;;
37407;SDS011;24866;50.248;8.252;2023-02-28T03:06:29;7.57;;;3.50;;
37407;SDS011;24866;50.248;8.252;2023-02-28T03:08:59;5.43;;;3.67;;
37407;SDS011;24866;50.248;8.252;2023-02-28T03:11:30;6.13;;;3.50;;
37407;SDS011;24866;50.248;8.252;2023-02-28T03:14:04;4.95;;;3.60;;
37407;SDS011;24866;50.248;8.252;2023-02-28T03:17:14;6.07;;;3.50;;
37407;SDS011;24866;50.248;8.252;2023-02-28T03:20:15;6.30;;;3.67;;
37407;SDS011;24866;50.248;8.252;2023-02-28T03:22:58;7.07;;;3.83;;
37407;SDS011;24866;50.248;8.252;2023-02-28T03:25:35;4.80;;;2.95;;
37407;SDS011;24866;50.248;8.252;2023-02-28T03:28:15;7.15;;;3.70;;
37407;SDS011;24866;50.248;8.252;2023-02-28T03:30:49;5.28;;;3.17;;
37407;SDS011;24866;50.248;8.252;2023-02-28T03:33:24;6.57;;;4.10;;
37407;SDS011;24866;50.248;8.252;2023-02-28T03:35:58;6.38;;;3.83;;
37407;SDS011;24866;50.248;8.252;2023-02-28T03:38:34;7.47;;;3.50;;
37407;SDS011;24866;50.248;8.252;2023-02-28T03:41:09;7.20;;;3.55;;
37407;SDS011;24866;50.248;8.252;2023-02-28T03:43:51;6.25;;;3.45;;
37407;SDS011;24866;50.248;8.252;2023-02-28T03:46:25;4.97;;;3.40;;
37407;SDS011;24866;50.248;8.252;2023-02-28T03:49:00;5.20;;;3.35;;
37407;SDS011;24866;50.248;8.252;2023-02-28T03:51:39;7.45;;;4.07;;
37407;SDS011;24866;50.248;8.252;2023-02-28T03:54:15;6.13;;;3.55;;
37407;SDS011;24866;50.248;8.252;2023-02-28T03:56:48;6.78;;;3.78;;
37407;SDS011;24866;50.248;8.252;2023-02-28T03:59:24;6.20;;;3.65;;
37407;SDS011;24866;50.248;8.252;2023-02-28T04:01:57;7.03;;;4.07;;
37407;SDS011;24866;50.248;8.252;2023-02-28T04:04:28;5.15;;;3.13;;
37407;SDS011;24866;50.248;8.252;2023-02-28T04:07:01;5.88;;;3.47;;
37407;SDS011;24866;50.248;8.252;2023-02-28T04:09:35;6.07;;;3.60;;
37407;SDS011;24866;50.248;8.252;2023-02-28T04:12:05;6.97;;;3.85;;
37407;SDS011;24866;50.248;8.252;2023-02-28T04:14:36;11.05;;;4.28;;
37407;SDS011;24866;50.248;8.252;2023-02-28T04:17:06;6.78;;;3.13;;
37407;SDS011;24866;50.248;8.252;2023-02-28T04:19:36;6.78;;;3.75;;
37407;SDS011;24866;50.248;8.252;2023-02-28T04:22:07;5.35;;;3.17;;
37407;SDS011;24866;50.248;8.252;2023-02-28T04:24:39;4.55;;;2.88;;
37407;SDS011;24866;50.248;8.252;2023-02-28T04:27:10;5.65;;;3.08;;
37407;SDS011;24866;50.248;8.252;2023-02-28T04:29:40;5.97;;;3.53;;
37407;SDS011;24866;50.248;8.252;2023-02-28T04:32:12;5.75;;;3.63;;
37407;SDS011;24866;50.248;8.252;2023-02-28T04:34:42;5.03;;;2.90;;
37407;SDS011;24866;50.248;8.252;2023-02-28T04:37:13;5.50;;;3.35;;
37407;SDS011;24866;50.248;8.252;2023-02-28T04:39:44;5.00;;;3.13;;
37407;SDS011;24866;50.248;8.252;2023-02-28T04:42:15;4.68;;;2.45;;
37407;SDS011;24866;50.248;8.252;2023-02-28T04:44:45;11.90;;;5.60;;
37407;SDS011;24866;50.248;8.252;2023-02-28T04:47:16;16.80;;;6.85;;
37407;SDS011;24866;50.248;8.252;2023-02-28T04:49:46;14.63;;;6.40;;
37407;SDS011;24866;50.248;8.252;2023-02-28T04:52:16;10.55;;;5.47;;
37407;SDS011;24866;50.248;8.252;2023-02-28T04:54:47;12.18;;;5.72;;
37407;SDS011;24866;50.248;8.252;2023-02-28T04:57:17;8.60;;;4.85;;
37407;SDS011;24866;50.248;8.252;2023-02-28T04:59:47;7.38;;;4.13;;
37407;SDS011;24866;50.248;8.252;2023-02-28T05:02:18;8.65;;;4.13;;
37407;SDS011;24866;50.248;8.252;2023-02-28T05:04:49;8.25;;;3.83;;
37407;SDS011;24866;50.248;8.252;2023-02-28T05:07:19;8.75;;;3.83;;
37407;SDS011;24866;50.248;8.252;2023-02-28T05:09:50;8.35;;;3.75;;
37407;SDS011;24866;50.248;8.252;2023-02-28T05:12:21;6.45;;;3.28;;
37407;SDS011;24866;50.248;8.252;2023-02-28T05:14:51;8.32;;;3.45;;
37407;SDS011;24866;50.248;8.252;2023-02-28T05:17:21;7.13;;;3.60;;
37407;SDS011;24866;50.248;8.252;2023-02-28T05:19:51;6.22;;;3.25;;
37407;SDS011;24866;50.248;8.252;2023-02-28T05:22:21;6.20;;;3.13;;
37407;SDS011;24866;50.248;8.252;2023-02-28T05:24:53;5.88;;;3.08;;
37407;SDS011;24866;50.248;8.252;2023-02-28T05:27:23;8.63;;;3.28;;
37407;SDS011;24866;50.248;8.252;2023-02-28T05:29:53;8.60;;;3.60;;
37407;SDS011;24866;50.248;8.252;2023-02-28T05:32:23;6.20;;;2.88;;
37407;SDS011;24866;50.248;8.252;2023-02-28T05:34:53;5.70;;;3.47;;
37407;SDS011;24866;50.248;8.252;2023-02-28T05:37:23;6.88;;;3.03;;
37407;SDS011;24866;50.248;8.252;2023-02-28T05:39:55;5.88;;;3.20;;
37407;SDS011;24866;50.248;8.252;2023-02-28T05:42:25;5.63;;;3.27;;
37407;SDS011;24866;50.248;8.252;2023-02-28T05:44:55;5.38;;;3.30;;
37407;SDS011;24866;50.248;8.252;2023-02-28T05:47:26;6.55;;;3.28;;
37407;SDS011;24866;50.248;8.252;2023-02-28T05:49:56;5.53;;;3.03;;
37407;SDS011;24866;50.248;8.252;2023-02-28T05:52:26;6.25;;;3.50;;
37407;SDS011;24866;50.248;8.252;2023-02-28T05:54:59;8.30;;;3.53;;
37407;SDS011;24866;50.248;8.252;2023-02-28T05:57:30;6.00;;;3.53;;
37407;SDS011;24866;50.248;8.252;2023-02-28T06:00:01;5.22;;;3.22;;
37407;SDS011;24866;50.248;8.252;2023-02-28T06:02:31;7.28;;;3.95;;
37407;SDS011;24866;50.248;8.252;2023-02-28T06:05:01;9.57;;;3.97;;
37407;SDS011;24866;50.248;8.252;2023-02-28T06:07:32;6.78;;;3.53;;
37407;SDS011;24866;50.248;8.252;2023-02-28T06:10:04;6.53;;;3.50;;
37407;SDS011;24866;50.248;8.252;2023-02-28T06:12:36;8.95;;;4.88;;
37407;SDS011;24866;50.248;8.252;2023-02-28T06:15:07;6.78;;;3.97;;
37407;SDS011;24866;50.248;8.252;2023-02-28T06:17:41;7.47;;;4.40;;
37407;SDS011;24866;50.248;8.252;2023-02-28T06:20:11;8.10;;;4.60;;
37407;SDS011;24866;50.248;8.252;2023-02-28T06:22:42;7.43;;;4.07;;
37407;SDS011;24866;50.248;8.252;2023-02-28T06:25:14;6.93;;;4.00;;
37407;SDS011;24866;50.248;8.252;2023-02-28T06:27:43;7.35;;;4.30;;
37407;SDS011;24866;50.248;8.252;2023-02-28T06:30:14;8.93;;;4.63;;
37407;SDS011;24866;50.248;8.252;2023-02-28T06:32:44;8.65;;;5.30;;
37407;SDS011;24866;50.248;8.252;2023-02-28T06:35:17;10.43;;;3.92;;
37407;SDS011;24866;50.248;8.252;2023-02-28T06:37:47;8.38;;;4.35;;
37407;SDS011;24866;50.248;8.252;2023-02-28T06:40:18;7.90;;;4.63;;
37407;SDS011;24866;50.248;8.252;2023-02-28T06:42:48;7.65;;;4.50;;
37407;SDS011;24866;50.248;8.252;2023-02-28T06:45:19;7.95;;;3.97;;
37407;SDS011;24866;50.248;8.252;2023-02-28T06:47:49;7.32;;;4.05;;
37407;SDS011;24866;50.248;8.252;2023-02-28T06:50:20;8.25;;;5.00;;
37407;SDS011;24866;50.248;8.252;2023-02-28T06:52:50;8.85;;;4.40;;
37407;SDS011;24866;50.248;8.252;2023-02-28T06:55:24;8.60;;;3.92;;
37407;SDS011;24866;50.248;8.252;2023-02-28T06:57:54;7.63;;;3.75;;
37407;SDS011;24866;50.248;8.252;2023-02-28T07:00:25;8.45;;;4.38;;
37407;SDS011;24866;50.248;8.252;2023-02-28T07:02:55;8.95;;;4.57;;
37407;SDS011;24866;50.248;8.252;2023-02-28T07:05:25;8.00;;;4.72;;
37407;SDS011;24866;50.248;8.252;2023-02-28T07:07:55;9.18;;;3.85;;
37407;SDS011;24866;50.248;8.252;2023-02-28T07:10:27;6.70;;;3.85;;
37407;SDS011;24866;50.248;8.252;2023-02-28T07:12:57;7.47;;;3.55;;
37407;SDS011;24866;50.248;8.252;2023-02-28T07:15:28;6.28;;;3.80;;
37407;SDS011;24866;50.248;8.252;2023-02-28T07:17:58;7.53;;;3.95;;
37407;SDS011;24866;50.248;8.252;2023-02-28T07:20:28;7.47;;;4.10;;
37407;SDS011;24866;50.248;8.252;2023-02-28T07:22:58;7.28;;;4.05;;
37407;SDS011;24866;50.248;8.252;2023-02-28T07:25:30;9.13;;;3.97;;
37407;SDS011;24866;50.248;8.252;2023-02-28T07:28:00;10.27;;;3.97;;
37407;SDS011;24866;50.248;8.252;2023-02-28T07:30:30;6.60;;;3.80;;
37407;SDS011;24866;50.248;8.252;2023-02-28T07:33:00;7.22;;;3.85;;
37407;SDS011;24866;50.248;8.252;2023-02-28T07:35:30;6.47;;;3.35;;
37407;SDS011;24866;50.248;8.252;2023-02-28T07:38:00;6.35;;;3.72;;
37407;SDS011;24866;50.248;8.252;2023-02-28T07:40:33;6.85;;;3.80;;
37407;SDS011;24866;50.248;8.252;2023-02-28T07:43:03;6.40;;;3.67;;
37407;SDS011;24866;50.248;8.252;2023-02-28T07:45:33;6.85;;;3.53;;
37407;SDS011;24866;50.248;8.252;2023-02-28T07:48:03;6.20;;;3.35;;
37407;SDS011;24866;50.248;8.252;2023-02-28T07:50:33;7.10;;;3.38;;
37407;SDS011;24866;50.248;8.252;2023-02-28T07:53:03;8.75;;;3.13;;
37407;SDS011;24866;50.248;8.252;2023-02-28T07:55:34;6.10;;;3.38;;
37407;SDS011;24866;50.248;8.252;2023-02-28T07:58:04;5.45;;;3.22;;
37407;SDS011;24866;50.248;8.252;2023-02-28T08:00:34;5.55;;;2.88;;
37407;SDS011;24866;50.248;8.252;2023-02-28T08:03:05;5.93;;;3.50;;
37407;SDS011;24866;50.248;8.252;2023-02-28T08:05:38;5.70;;;3.08;;
37407;SDS011;24866;50.248;8.252;2023-02-28T08:08:09;5.78;;;3.08;;
37407;SDS011;24866;50.248;8.252;2023-02-28T08:10:40;5.90;;;3.08;;
37407;SDS011;24866;50.248;8.252;2023-02-28T08:15:41;5.07;;;2.55;;
37407;SDS011;24866;50.248;8.252;2023-02-28T08:18:13;5.57;;;3.17;;
37407;SDS011;24866;50.248;8.252;2023-02-28T08:20:43;6.57;;;3.25;;
37407;SDS011;24866;50.248;8.252;2023-02-28T08:23:13;6.82;;;2.95;;
37407;SDS011;24866;50.248;8.252;2023-02-28T08:25:52;6.25;;;3.33;;
37407;SDS011;24866;50.248;8.252;2023-02-28T08:28:23;5.07;;;3.33;;
37407;SDS011;24866;50.248;8.252;2023-02-28T08:30:54;4.50;;;2.70;;
37407;SDS011;24866;50.248;8.252;2023-02-28T08:33:24;6.55;;;3.38;;
37407;SDS011;24866;50.248;8.252;2023-02-28T08:35:56;7.23;;;3.40;;
37407;SDS011;24866;50.248;8.252;2023-02-28T08:38:26;7.60;;;3.38;;
37407;SDS011;24866;50.248;8.252;2023-02-28T08:41:01;6.03;;;3.10;;
37407;SDS011;24866;50.248;8.252;2023-02-28T08:43:34;9.57;;;3.42;;
37407;SDS011;24866;50.248;8.252;2023-02-28T08:46:04;4.45;;;2.80;;
37407;SDS011;24866;50.248;8.252;2023-02-28T08:48:35;6.22;;;3.10;;
37407;SDS011;24866;50.248;8.252;2023-02-28T08:51:07;6.00;;;3.07;;
37407;SDS011;24866;50.248;8.252;2023-02-28T08:53:38;5.43;;;2.65;;
37407;SDS011;24866;50.248;8.252;2023-02-28T08:56:11;4.97;;;2.63;;
37407;SDS011;24866;50.248;8.252;2023-02-28T08:58:42;9.18;;;3.30;;
37407;SDS011;24866;50.248;8.252;2023-02-28T09:01:13;10.57;;;3.50;;
37407;SDS011;24866;50.248;8.252;2023-02-28T09:03:45;5.28;;;2.78;;
37407;SDS011;24866;50.248;8.252;2023-02-28T09:06:16;5.83;;;2.60;;
37407;SDS011;24866;50.248;8.252;2023-02-28T09:08:47;4.65;;;3.08;;
37407;SDS011;24866;50.248;8.252;2023-02-28T09:11:19;4.65;;;2.85;;
37407;SDS011;24866;50.248;8.252;2023-02-28T09:13:49;4.93;;;2.67;;
37407;SDS011;24866;50.248;8.252;2023-02-28T09:16:19;7.15;;;3.03;;
37407;SDS011;24866;50.248;8.252;2023-02-28T09:18:49;6.15;;;2.90;;
37407;SDS011;24866;50.248;8.252;2023-02-28T09:21:19;4.60;;;2.80;;
37407;SDS011;24866;50.248;8.252;2023-02-28T09:23:50;5.30;;;3.13;;
37407;SDS011;24866;50.248;8.252;2023-02-28T09:26:22;5.55;;;2.65;;
37407;SDS011;24866;50.248;8.252;2023-02-28T09:28:54;5.85;;;3.38;;
37407;SDS011;24866;50.248;8.252;2023-02-28T09:31:27;6.70;;;2.85;;
37407;SDS011;24866;50.248;8.252;2023-02-28T09:33:58;4.22;;;2.33;;
37407;SDS011;24866;50.248;8.252;2023-02-28T09:36:29;5.20;;;2.90;;
37407;SDS011;24866;50.248;8.252;2023-02-28T09:38:59;5.55;;;2.90;;
37407;SDS011;24866;50.248;8.252;2023-02-28T09:41:32;4.53;;;2.40;;
37407;SDS011;24866;50.248;8.252;2023-02-28T09:44:16;4.68;;;2.40;;
37407;SDS011;24866;50.248;8.252;2023-02-28T09:46:53;5.07;;;2.80;;
37407;SDS011;24866;50.248;8.252;2023-02-28T09:49:30;3.97;;;2.58;;
37407;SDS011;24866;50.248;8.252;2023-02-28T09:52:09;5.60;;;2.50;;
37407;SDS011;24866;50.248;8.252;2023-02-28T09:54:43;5.10;;;2.60;;
37407;SDS011;24866;50.248;8.252;2023-02-28T09:57:17;5.45;;;2.50;;
37407;SDS011;24866;50.248;8.252;2023-02-28T09:59:59;7.38;;;2.90;;
37407;SDS011;24866;50.248;8.252;2023-02-28T10:02:46;3.90;;;2.35;;
37407;SDS011;24866;50.248;8.252;2023-02-28T10:05:32;4.43;;;2.88;;
37407;SDS011;24866;50.248;8.252;2023-02-28T10:08:08;6.47;;;3.33;;
37407;SDS011;24866;50.248;8.252;2023-02-28T10:10:44;5.30;;;2.55;;
37407;SDS011;24866;50.248;8.252;2023-02-28T10:13:20;5.90;;;2.92;;
37407;SDS011;24866;50.248;8.252;2023-02-28T10:15:55;4.82;;;2.38;;
37407;SDS011;24866;50.248;8.252;2023-02-28T10:18:29;5.75;;;2.40;;
37407;SDS011;24866;50.248;8.252;2023-02-28T10:21:08;4.47;;;2.33;;
37407;SDS011;24866;50.248;8.252;2023-02-28T10:23:48;4.20;;;2.80;;
37407;SDS011;24866;50.248;8.252;2023-02-28T10:26:24;4.88;;;2.65;;
37407;SDS011;24866;50.248;8.252;2023-02-28T10:29:00;5.10;;;3.15;;
37407;SDS011;24866;50.248;8.252;2023-02-28T10:31:34;4.75;;;3.00;;
37407;SDS011;24866;50.248;8.252;2023-02-28T10:34:05;4.63;;;2.80;;
37407;SDS011;24866;50.248;8.252;2023-02-28T10:36:38;3.83;;;2.70;;
37407;SDS011;24866;50.248;8.252;2023-02-28T10:42:22;5.90;;;3.38;;
37407;SDS011;24866;50.248;8.252;2023-02-28T10:45:09;4.57;;;3.05;;
37407;SDS011;24866;50.248;8.252;2023-02-28T10:47:49;5.00;;;2.90;;
37407;SDS011;24866;50.248;8.252;2023-02-28T10:50:27;6.50;;;3.33;;
37407;SDS011;24866;50.248;8.252;2023-02-28T10:53:16;5.57;;;3.42;;
37407;SDS011;24866;50.248;8.252;2023-02-28T10:55:57;5.68;;;2.92;;
37407;SDS011;24866;50.248;8.252;2023-02-28T10:58:31;7.20;;;2.95;;
37407;SDS011;24866;50.248;8.252;2023-02-28T11:01:17;5.72;;;2.95;;
37407;SDS011;24866;50.248;8.252;2023-02-28T11:03:50;4.35;;;3.08;;
37407;SDS011;24866;50.248;8.252;2023-02-28T11:06:21;7.38;;;2.72;;
37407;SDS011;24866;50.248;8.252;2023-02-28T11:08:55;4.53;;;3.03;;
37407;SDS011;24866;50.248;8.252;2023-02-28T11:11:27;5.22;;;2.95;;
37407;SDS011;24866;50.248;8.252;2023-02-28T11:14:02;4.93;;;3.13;;
37407;SDS011;24866;50.248;8.252;2023-02-28T11:16:37;5.00;;;3.13;;
37407;SDS011;24866;50.248;8.252;2023-02-28T11:19:15;5.35;;;2.78;;
37407;SDS011;24866;50.248;8.252;2023-02-28T11:21:51;5.97;;;3.45;;
37407;SDS011;24866;50.248;8.252;2023-02-28T11:24:25;4.55;;;3.22;;
37407;SDS011;24866;50.248;8.252;2023-02-28T11:26:57;5.53;;;3.53;;
37407;SDS011;24866;50.248;8.252;2023-02-28T11:29:28;6.78;;;3.67;;
37407;SDS011;24866;50.248;8.252;2023-02-28T11:32:02;6.10;;;3.67;;
37407;SDS011;24866;50.248;8.252;2023-02-28T11:34:37;6.07;;;3.00;;
37407;SDS011;24866;50.248;8.252;2023-02-28T11:37:10;4.78;;;2.85;;
37407;SDS011;24866;50.248;8.252;2023-02-28T11:39:42;5.03;;;3.00;;
37407;SDS011;24866;50.248;8.252;2023-02-28T11:45:21;5.57;;;3.08;;
37407;SDS011;24866;50.248;8.252;2023-02-28T11:50:44;4.68;;;2.97;;
37407;SDS011;24866;50.248;8.252;2023-02-28T11:53:22;6.47;;;3.50;;
37407;SDS011;24866;50.248;8.252;2023-02-28T11:56:09;5.43;;;3.05;;
37407;SDS011;24866;50.248;8.252;2023-02-28T11:58:46;5.32;;;2.97;;
37407;SDS011;24866;50.248;8.252;2023-02-28T12:01:27;5.60;;;3.47;;
37407;SDS011;24866;50.248;8.252;2023-02-28T12:04:26;6.00;;;3.10;;
37407;SDS011;24866;50.248;8.252;2023-02-28T12:07:13;5.35;;;3.10;;
37407;SDS011;24866;50.248;8.252;2023-02-28T12:09:51;6.25;;;3.30;;
37407;SDS011;24866;50.248;8.252;2023-02-28T12:12:31;7.32;;;3.72;;
37407;SDS011;24866;50.248;8.252;2023-02-28T12:15:21;4.82;;;3.08;;
37407;SDS011;24866;50.248;8.252;2023-02-28T12:18:03;7.07;;;3.60;;
37407;SDS011;24866;50.248;8.252;2023-02-28T12:20:45;5.32;;;3.60;;
37407;SDS011;24866;50.248;8.252;2023-02-28T12:23:26;6.03;;;3.67;;
37407;SDS011;24866;50.248;8.252;2023-02-28T12:26:11;6.43;;;3.20;;
37407;SDS011;24866;50.248;8.252;2023-02-28T12:28:46;7.53;;;4.03;;
37407;SDS011;24866;50.248;8.252;2023-02-28T12:31:20;5.80;;;3.30;;
37407;SDS011;24866;50.248;8.252;2023-02-28T12:33:56;6.72;;;3.58;;
37407;SDS011;24866;50.248;8.252;2023-02-28T12:36:32;7.90;;;3.55;;
37407;SDS011;24866;50.248;8.252;2023-02-28T12:39:06;6.20;;;3.47;;
37407;SDS011;24866;50.248;8.252;2023-02-28T12:41:41;6.55;;;3.47;;
37407;SDS011;24866;50.248;8.252;2023-02-28T12:44:16;7.18;;;4.28;;
37407;SDS011;24866;50.248;8.252;2023-02-28T12:46:48;7.40;;;3.78;;
37407;SDS011;24866;50.248;8.252;2023-02-28T12:49:22;6.43;;;4.53;;
37407;SDS011;24866;50.248;8.252;2023-02-28T12:52:00;5.78;;;3.63;;
37407;SDS011;24866;50.248;8.252;2023-02-28T12:54:33;5.55;;;3.85;;
37407;SDS011;24866;50.248;8.252;2023-02-28T12:57:12;7.93;;;4.13;;
37407;SDS011;24866;50.248;8.252;2023-02-28T12:59:48;7.05;;;3.95;;
37407;SDS011;24866;50.248;8.252;2023-02-28T13:02:31;5.57;;;3.63;;
37407;SDS011;24866;50.248;8.252;2023-02-28T13:05:25;6.88;;;4.22;;
37407;SDS011;24866;50.248;8.252;2023-02-28T13:08:14;5.65;;;3.58;;
37407;SDS011;24866;50.248;8.252;2023-02-28T13:10:59;10.32;;;4.20;;
37407;SDS011;24866;50.248;8.252;2023-02-28T13:13:29;6.60;;;3.90;;
37407;SDS011;24866;50.248;8.252;2023-02-28T13:16:04;6.57;;;3.90;;
37407;SDS011;24866;50.248;8.252;2023-02-28T13:18:37;6.97;;;4.28;;
37407;SDS011;24866;50.248;8.252;2023-02-28T13:21:09;7.10;;;4.22;;
37407;SDS011;24866;50.248;8.252;2023-02-28T13:29:36;6.22;;;4.35;;
37407;SDS011;24866;50.248;8.252;2023-02-28T13:37:44;6.03;;;3.88;;
37407;SDS011;24866;50.248;8.252;2023-02-28T13:40:31;8.77;;;4.63;;
37407;SDS011;24866;50.248;8.252;2023-02-28T13:43:07;8.27;;;4.10;;
37407;SDS011;24866;50.248;8.252;2023-02-28T13:45:38;7.10;;;3.67;;
37407;SDS011;24866;50.248;8.252;2023-02-28T13:48:28;7.43;;;4.63;;
37407;SDS011;24866;50.248;8.252;2023-02-28T13:50:59;6.68;;;4.00;;
37407;SDS011;24866;50.248;8.252;2023-02-28T13:53:47;6.18;;;4.10;;
37407;SDS011;24866;50.248;8.252;2023-02-28T13:56:35;7.32;;;4.13;;
37407;SDS011;24866;50.248;8.252;2023-02-28T13:59:16;6.50;;;3.65;;
37407;SDS011;24866;50.248;8.252;2023-02-28T14:01:58;5.75;;;3.97;;
37407;SDS011;24866;50.248;8.252;2023-02-28T14:04:50;5.53;;;3.95;;
37407;SDS011;24866;50.248;8.252;2023-02-28T14:07:30;6.57;;;3.75;;
37407;SDS011;24866;50.248;8.252;2023-02-28T14:10:03;6.90;;;4.30;;
37407;SDS011;24866;50.248;8.252;2023-02-28T14:15:54;7.00;;;3.72;;
37407;SDS011;24866;50.248;8.252;2023-02-28T14:18:28;7.93;;;4.57;;
37407;SDS011;24866;50.248;8.252;2023-02-28T14:21:08;8.15;;;4.57;;
37407;SDS011;24866;50.248;8.252;2023-02-28T14:23:55;7.15;;;3.83;;
37407;SDS011;24866;50.248;8.252;2023-02-28T14:29:47;6.20;;;3.70;;
37407;SDS011;24866;50.248;8.252;2023-02-28T14:32:44;5.47;;;3.45;;
37407;SDS011;24866;50.248;8.252;2023-02-28T14:35:27;6.93;;;3.50;;
37407;SDS011;24866;50.248;8.252;2023-02-28T14:38:21;3.83;;;2.72;;
37407;SDS011;24866;50.248;8.252;2023-02-28T14:40:55;6.35;;;3.85;;
37407;SDS011;24866;50.248;8.252;2023-02-28T14:43:28;6.43;;;3.50;;
37407;SDS011;24866;50.248;8.252;2023-02-28T14:46:00;4.93;;;3.20;;
37407;SDS011;24866;50.248;8.252;2023-02-28T14:48:32;5.30;;;3.17;;
37407;SDS011;24866;50.248;8.252;2023-02-28T14:51:03;6.25;;;3.63;;
37407;SDS011;24866;50.248;8.252;2023-02-28T14:53:35;6.53;;;3.60;;
37407;SDS011;24866;50.248;8.252;2023-02-28T14:56:17;7.97;;;3.65;;
37407;SDS011;24866;50.248;8.252;2023-02-28T14:58:50;5.63;;;3.65;;
37407;SDS011;24866;50.248;8.252;2023-02-28T15:01:24;5.70;;;3.97;;
37407;SDS011;24866;50.248;8.252;2023-02-28T15:04:00;6.85;;;3.92;;
37407;SDS011;24866;50.248;8.252;2023-02-28T15:06:34;8.35;;;3.60;;
37407;SDS011;24866;50.248;8.252;2023-02-28T15:09:13;6.30;;;3.80;;
37407;SDS011;24866;50.248;8.252;2023-02-28T15:11:46;6.25;;;3.90;;
37407;SDS011;24866;50.248;8.252;2023-02-28T15:14:20;5.05;;;3.83;;
37407;SDS011;24866;50.248;8.252;2023-02-28T15:16:55;5.90;;;3.70;;
37407;SDS011;24866;50.248;8.252;2023-02-28T15:19:29;7.05;;;3.55;;
37407;SDS011;24866;50.248;8.252;2023-02-28T15:22:02;6.38;;;3.50;;
37407;SDS011;24866;50.248;8.252;2023-02-28T15:24:37;6.00;;;3.78;;
37407;SDS011;24866;50.248;8.252;2023-02-28T15:27:10;6.13;;;3.85;;
37407;SDS011;24866;50.248;8.252;2023-02-28T15:29:45;6.70;;;4.10;;
37407;SDS011;24866;50.248;8.252;2023-02-28T15:32:27;7.10;;;4.07;;
37407;SDS011;24866;50.248;8.252;2023-02-28T15:34:59;7.55;;;4.30;;
37407;SDS011;24866;50.248;8.252;2023-02-28T15:37:52;7.95;;;3.55;;
37407;SDS011;24866;50.248;8.252;2023-02-28T15:40:26;6.53;;;3.65;;
37407;SDS011;24866;50.248;8.252;2023-02-28T15:43:00;6.30;;;3.63;;
37407;SDS011;24866;50.248;8.252;2023-02-28T15:45:35;7.10;;;3.90;;
37407;SDS011;24866;50.248;8.252;2023-02-28T15:48:20;8.82;;;4.95;;
37407;SDS011;24866;50.248;8.252;2023-02-28T15:50:53;6.70;;;3.78;;
37407;SDS011;24866;50.248;8.252;2023-02-28T15:53:26;5.75;;;3.67;;
37407;SDS011;24866;50.248;8.252;2023-02-28T15:56:02;5.20;;;3.58;;
37407;SDS011;24866;50.248;8.252;2023-02-28T15:58:35;7.63;;;3.67;;
37407;SDS011;24866;50.248;8.252;2023-02-28T16:01:15;7.38;;;3.92;;
37407;SDS011;24866;50.248;8.252;2023-02-28T16:03:50;6.05;;;3.78;;
37407;SDS011;24866;50.248;8.252;2023-02-28T16:09:11;8.73;;;3.85;;
37407;SDS011;24866;50.248;8.252;2023-02-28T16:11:43;5.53;;;3.22;;